Latest Coastal Weather Observations for Maatsuyker Island

IDT60701

Issued at 5:43 pm EDT Friday 3 December 2021 (issued every 10 minutes, with the page automatically refreshed every 10 minutes)

About coastal observations | Map of coastal stations | Coastal observations for TAS | Marine services | Other Formats
Station Details ID: 094041 Name: MAATSUYKER ISLAND LIGHTHOUSE Lat: -43.66 Lon: 146.27 Height: 146.5 m
Data from the previous 72 hours. | See also: Recent months at Maatsuyker Island
Date/Time
EDT
Wind Sea
Height
m
Swell Vis
km
Cloud Weather Temp
°C
Press
MSL
hPa
Rain since
9am
mm
Dir  Spd
kts
Gust
kts
Height
m
Period
s
Dir
03/05:30pm NW 31 37 - - - - - - - 12.4 1012.8 0.0
03/05:00pm NW 28 35 - - - - - - - 12.4 1013.2 0.0
03/04:55pm NW 30 40 - - - - - - - 12.4 1013.3 0.0
03/04:54pm NW 30 40 - - - - - - - 12.4 - 0.0
03/04:30pm NW 32 38 - - - - - - - 12.4 1013.2 0.0
03/04:00pm NW 30 36 - - - - - - - 12.8 1013.5 0.0
03/03:30pm NW 31 35 - - - - - - - 12.8 1013.8 0.0
03/03:00pm NW 29 34 - - - - - - - 13.0 1014.3 0.0
03/02:30pm NW 31 35 - - - - - - - 11.9 1014.6 0.0
03/02:00pm NW 30 33 - - - - - - - 12.0 1015.0 0.0
03/01:30pm NW 28 32 - - - - - - - 11.8 1015.2 0.0
03/01:00pm NW 25 29 - - - - - - - 12.2 1015.6 0.0
03/12:30pm NW 26 32 - - - - - - - 11.0 1015.8 0.0
03/12:00pm NW 27 31 - - - - - - - 12.3 1016.3 0.0
03/11:30am NW 25 30 - - - - - - - 12.2 1016.2 0.0
03/11:00am NW 25 29 - - - - - - - 12.1 1016.6 0.0
03/10:30am NW 26 29 - - - - - - - 12.0 1016.6 0.0
03/10:00am NW 27 30 - - - - - - - 11.7 1016.2 0.0
03/09:30am NW 26 30 - - - - - - - 11.6 - 0.0
03/09:00am NW 27 30 - - - - - - - 11.4 1016.1 0.6
03/08:30am NW 28 31 - - - - - - - 11.0 1015.9 0.6
03/08:00am WNW 25 29 - - - - - - - 10.8 1015.7 0.6
03/07:30am WNW 25 28 - - - - - - - 10.5 1015.5 0.6
03/07:00am WNW 24 28 - - - - - - - 10.5 1015.2 0.6
03/06:30am WNW 24 29 - - - - - - - 10.5 1014.9 0.6
03/06:00am WNW 23 29 - - - - - - - 10.6 1014.7 0.6
03/05:30am WNW 22 26 - - - - - - - 10.5 1014.4 0.6
03/05:00am WNW 26 30 - - - - - - - 10.6 1013.9 0.6
03/04:30am WNW 25 28 - - - - - - - 10.8 1013.7 0.6
03/04:00am WNW 25 29 - - - - - - - 10.5 1013.4 0.6
03/03:30am WNW 27 30 - - - - - - - 10.3 1013.2 0.6
03/03:00am WNW 27 31 - - - - - - - 10.6 1012.9 0.6
03/02:30am WNW 28 32 - - - - - - - 10.2 1013.0 0.6
03/02:00am WNW 31 35 - - - - - - - 10.0 1013.0 0.6
03/01:30am WNW 27 32 - - - - - - - 9.9 - 0.6
03/01:00am WNW 28 35 - - - - - - - 10.4 1013.0 0.4
03/12:53am NW 27 34 - - - - - - - 10.9 1013.0 0.0
03/12:50am WNW 29 34 - - - - - - - 11.3 - 0.0
03/12:30am NW 24 30 - - - - - - - 11.8 1012.3 0.0
03/12:00am NW 26 32 - - - - - - - 12.2 1012.4 0.0
 
Date/Time
EDT
Wind Sea
Height
m
Swell Vis
km
Cloud Weather Temp
°C
Press
MSL
hPa
Rain since
9am
mm
Dir  Spd
kts
Gust
kts
Height
m
Period
s
Dir
02/11:30pm NW 28 34 - - - - - - - 12.4 1012.3 0.0
02/11:00pm NW 23 28 - - - - - - - 12.5 1012.8 0.0
02/10:30pm NW 28 33 - - - - - - - 12.5 1012.5 0.0
02/10:05pm NW 25 35 - - - - - - - 12.0 1011.7 0.0
02/10:04pm NW 25 35 - - - - - - - 12.0 - 0.0
02/10:00pm NW 24 31 - - - - - - - 11.9 1012.1 0.0
02/09:30pm NW 27 31 - - - - - - - 12.1 1011.3 0.0
02/09:00pm NW 25 28 - - - - - - - 12.1 1010.8 0.0
02/08:30pm NW 20 23 - - - - - - - 11.8 1011.0 0.0
02/08:00pm NW 21 25 - - - - - - - 12.0 1011.2 0.0
02/07:30pm NW 26 30 - - - - - - - 12.0 1010.7 0.0
02/07:00pm NW 27 30 - - - - - - - 11.9 1009.7 0.0
02/06:30pm NW 27 31 - - - - - - - 11.8 1010.1 0.0
02/06:00pm WNW 28 34 - - - - - - - 11.8 1009.6 0.0
02/05:30pm WNW 31 35 - - - - - - - 11.7 1009.6 0.0
02/05:00pm WNW 32 36 - - - - - - - 11.8 1009.6 0.0
02/04:30pm WNW 34 38 - - - - - - - 12.8 1008.9 0.0
02/04:00pm WNW 37 39 - - - - - - - 14.1 1008.7 0.0
02/03:30pm WNW 31 35 - - - - - - - 14.3 1009.3 0.0
02/03:00pm WNW 30 33 - - - - - - - 13.3 1010.2 0.0
02/02:30pm WNW 28 32 - - - - - - - 13.7 1010.3 0.0
02/02:00pm WNW 27 31 - - - - - - - 14.4 1010.3 0.0
02/01:30pm WNW 26 33 - - - - - - - 14.9 1010.7 0.0
02/01:00pm NW 27 32 - - - - - - - 15.4 1010.2 0.0
02/12:30pm NW 25 27 - - - - - - - 15.3 1010.9 0.0
02/12:00pm WNW 29 33 - - - - - - - 15.5 1010.9 0.0
02/11:30am WNW 25 28 - - - - - - - 15.1 1011.1 0.0
02/11:21am WNW 21 28 - - - - - - - 15.1 1011.2 0.0
02/11:20am WNW 25 28 - - - - - - - 15.1 - 0.0
02/11:00am NW 14 17 - - - - - - - 15.1 1011.8 0.0
02/10:30am NW 11 13 - - - - - - - 14.5 1011.9 0.0
02/10:00am WNW 8 10 - - - - - - - 15.2 1012.0 0.0
02/09:30am NW 3 4 - - - - - - - 14.3 1011.8 0.0
02/09:00am NW 5 8 <0.5 1.5 14 SW 10 Mostly clear Haze 14.2 1012.0 0.0
02/08:30am NNW 4 6 - - - - - - - 14.3 1011.9 0.0
02/08:00am N 3 4 - - - - - - - 14.1 1012.4 0.0
02/07:30am N 1 4 - - - - - - - 14.1 1012.7 0.0
02/07:00am NW 3 4 - - - - - - - 13.5 1012.8 0.0
02/06:30am NW 4 6 - - - - - - - 13.3 1012.7 0.0
02/06:00am NW 5 7 <0.5 1.5 13 SW 2 Cloudy Haze 13.0 1012.5 0.0
02/05:30am WNW 3 5 - - - - - - - 12.9 1012.6 0.0
02/05:00am CALM 0 3 - - - - - - - 12.8 1012.7 0.0
02/04:30am WNW 2 4 - - - - - - - 12.6 1012.8 0.0
02/04:00am NW 3 6 - - - - - - - 12.5 1013.0 0.0
02/03:30am NNW 1 5 - - - - - - - 12.4 1013.4 0.0
02/03:00am NNW 1 4 - - - - - - - 12.5 1013.7 0.0
02/02:30am CALM 0 3 - - - - - - - 12.6 1014.1 0.0
02/02:00am NNW 1 5 - - - - - - - 12.6 1014.2 0.0
02/01:30am N 2 4 - - - - - - - 12.6 - 0.0
02/01:00am NNW 4 5 - - - - - - - 12.7 1014.2 0.0
02/12:30am N 3 4 - - - - - - - 12.8 1014.5 0.0
02/12:00am NW 1 3 - - - - - - - 13.0 1014.7 0.0
 
Date/Time
EDT
Wind Sea
Height
m
Swell Vis
km
Cloud Weather Temp
°C
Press
MSL
hPa
Rain since
9am
mm
Dir  Spd
kts
Gust
kts
Height
m
Period
s
Dir
01/11:30pm NNW 1 5 - - - - - - - 13.1 1014.8 0.0
01/11:00pm NNW 1 4 - - - - - - - 13.2 1014.7 0.0
01/10:30pm CALM 0 3 - - - - - - - 13.2 1015.0 0.0
01/10:00pm SSE 9 10 - - - - - - - 13.2 1015.1 0.0
01/09:30pm SSW 6 8 - - - - - - - 13.2 1015.0 0.0
01/09:00pm SW 7 10 - - - - - - - 13.2 1014.9 0.0
01/08:30pm WSW 8 10 - - - - - - - 13.4 1014.6 0.0
01/08:00pm W 9 12 - - - - - - - 13.6 1014.2 0.0
01/07:30pm WNW 18 20 - - - - - - - 13.7 1013.8 0.0
01/07:00pm WNW 17 22 - - - - - - - 14.2 1013.9 0.0
01/06:30pm WNW 17 22 - - - - - - - 13.9 1013.2 0.0
01/06:00pm WNW 17 23 - - - - - - - 15.9 1013.3 0.0
01/05:30pm WNW 28 32 - - - - - - - 15.2 1012.2 0.0
01/05:00pm WNW 31 34 - - - - - - - 15.3 1011.6 0.0
01/04:51pm WNW 29 32 - - - - - - - 14.9 - 0.0
01/04:49pm WNW 26 30 - - - - - - - 14.6 1012.0 -
01/04:30pm WNW 17 20 - - - - - - - 14.5 1012.8 0.0
01/04:00pm NW 24 29 - - - - - - - 15.5 1012.3 0.0
01/03:30pm NW 32 37 - - - - - - - 16.0 1011.2 0.0
01/03:00pm NW 27 33 - - - - - - - 16.3 1011.1 0.0
01/02:30pm NW 32 37 - - - - - - - 16.9 1010.7 0.0
01/02:19pm NW 32 39 - - - - - - - 16.7 1010.5 0.0
01/02:00pm NW 25 29 - - - - - - - 16.9 1011.1 0.0
01/01:41pm NW 27 32 - - - - - - - 16.7 1011.0 0.0
01/01:40pm NW 30 32 - - - - - - - 16.7 - 0.0
01/01:34pm NW 18 28 - - - - - - - 17.3 1011.3 0.0
01/01:33pm NW 18 28 - - - - - - - 17.3 - 0.0
01/01:30pm NW 15 21 - - - - - - - 17.0 1011.6 0.0
01/01:06pm NW 20 35 - - - - - - - 16.5 1011.4 0.0
01/01:05pm NW 20 35 - - - - - - - 16.5 - 0.0
01/01:00pm NW 18 23 - - - - - - - 16.7 1011.6 0.0
01/12:30pm NW 26 34 - - - - - - - 15.6 1011.6 0.0
01/12:29pm NW 19 24 - - - - - - - 15.6 - 0.0
01/12:15pm NW 28 31 - - - - - - - 15.4 1011.0 0.0
01/12:14pm WNW 31 31 - - - - - - - 15.4 - 0.0
01/12:00pm NW 20 22 - - - - - - - 15.4 1011.4 0.0
01/11:30am NW 15 19 - - - - - - - 15.4 1012.4 0.0
01/11:00am W 16 25 - - - - - - - 16.3 1011.5 0.0
01/10:47am WNW 13 21 - - - - - - - 18.0 1010.9 0.0
01/10:46am WNW 15 21 - - - - - - - 18.0 - 0.0
01/10:30am NW 8 11 - - - - - - - 22.0 1010.2 0.0
01/10:00am N 8 11 - - - - - - - 24.4 1009.9 0.0
01/09:30am N 7 11 - - - - - - - 23.7 1010.1 0.0
01/09:00am NNE 7 10 - - - - 20 Partly cloudy Haze 22.6 1010.1 0.0
01/08:30am NNE 7 9 - - - - - - - 21.8 1010.1 0.0
01/08:00am NNE 6 9 - - - - - - - 21.4 1010.1 0.0
01/07:30am NE 7 10 - - - - - - - 20.6 1010.1 0.0
01/07:00am NE 6 8 - - - - - - - 19.8 1010.0 0.0
01/06:30am NNE 6 8 - - - - - - - 19.0 - 0.0
01/06:00am NNE 5 7 <0.5 1.0 15 SW 15 Mostly cloudy Haze 18.3 1010.0 0.0
01/05:30am N 6 8 - - - - - - - 18.3 - 0.0
01/05:00am NNE 7 9 - - - - - - - 18.3 1009.7 0.0
01/04:30am N 6 8 - - - - - - - 18.0 1009.8 0.0
01/04:00am N 6 7 - - - - - - - 17.2 1009.9 0.0
01/03:30am N 6 7 - - - - - - - 17.2 1010.1 0.0
01/03:00am N 6 8 - - - - - - - 17.7 1010.2 0.0
01/02:30am N 7 9 - - - - - - - 17.7 1010.2 0.0
01/02:00am N 7 8 - - - - - - - 17.8 1010.3 0.0
01/01:30am N 8 9 - - - - - - - 17.6 - 0.0
01/01:00am N 7 9 - - - - - - - 17.7 1010.8 0.0
01/12:30am N 7 10 - - - - - - - 17.1 1011.1 0.0
01/12:00am N 6 8 - - - - - - - 17.0 1011.4 0.0
 
Date/Time
EDT
Wind Sea
Height
m
Swell Vis
km
Cloud Weather Temp
°C
Press
MSL
hPa
Rain since
9am
mm
Dir  Spd
kts
Gust
kts
Height
m
Period
s
Dir
30/11:30pm N 7 9 - - - - - - - 17.1 1011.6 0.0
30/11:00pm NNW 8 10 - - - - - - - 17.6 1012.1 0.0
30/10:30pm N 9 11 - - - - - - - 17.3 1012.4 0.0
30/10:00pm N 8 13 - - - - - - - 17.3 1012.5 0.0
30/09:30pm N 7 8 - - - - - - - 17.5 1012.5 0.0
30/09:00pm N 4 6 - - - - - - - 17.7 1012.6 0.0
30/08:30pm N 2 5 - - - - - - - 18.6 1012.4 0.0
30/08:00pm W 3 6 - - - - - - - 18.1 1012.4 0.0
30/07:30pm NW 4 7 - - - - - - - 19.6 1011.8 0.0
30/07:00pm NE 9 16 - - - - - - - 19.1 1011.4 0.0
30/06:30pm NNW 6 13 - - - - - - - 18.7 1011.5 0.0
30/06:00pm NE 5 7 - - - - - - - 18.7 1011.6 0.0

Other formats

Comma delimited format used in spreadsheet applications
http://www.bom.gov.au/fwo/IDT60701/IDT60701.94962.axf

JavaScript Object Notation format (JSON) in row-major order
http://www.bom.gov.au/fwo/IDT60701/IDT60701.94962.json

Data quality

Most of these data are generated automatically and are frequently updated. Quality checks on data are not normally performed. It is possible for incorrect values to appear. Refer to information at About Latest Weather Observations and please check the disclaimer before using these data.